Racecast

Austin Bailey

Folsom (CA) · 12 · SFLCA D1SJS D1YOLO · Compare head to head

Athlete rating 120.2 2011 XC season
Best race 123.0 XC
Races 65
Seasons 4 2008 — 2011

RankedNation #14255·CA #2598·CA D1 #1303·SJS #209·SJS D1 #148·SFL #52·Team #9 ?

Speed rating — all races

Cross Country

XC speed rating

2011 XC 118.1

Folsom (CA) · Grade 12

Date Meet Event Result Place Rating Difficulty PR/SR Flags
2011-11-26 Woodward Park 5000m 17:22 161st · 4th on team 120.1 +0.013 ★CR CSR
2011-11-11 Willow Hills Reservoir Course 5000m 18:09 58th · 7th on team 119.1 +0.045
2011-11-05 Calaveras County Fairgrounds 4828m 17:36 64th · 5th on team 119.5 +0.065 ★PR ★CR SR CSR
2011-10-29 Willow Hills Reservoir Course 5000m 17:36 11th · 3rd on team 123.0 +0.045 ★CR ★R CSR RSR
2011-10-21 Lodi Lake 5000m 17:16 5th · 4th on team 121.5 +0.011 ★CR R CSR RSR
2011-10-08 Woodward Park 5000m 17:45 13th · 6th on team 117.9 +0.013 CR CSR
2011-10-08 Woodward Park 5000m 17:48 131st · 6th on team 117.6 +0.013
2011-10-05 Granite Park 5000m 17:14 14th · 6th on team 120.2 +0.002 ★PR ★CR R SR CSR RSR
2011-09-24 Stanford University Golf Course 5000m 17:33 106th · 7th on team 117.8 +0.002 PR ★CR SR CSR
2011-09-17 Nevada Union High School 4828m 18:03.9 22nd · 5th on team 118.0 +0.076 PR ★CR SR CSR RSR
2011-09-10 Granite Park 5000m 18:02 19th · 7th on team 116.0 +0.002 PR CR SR CSR RSR
2011-09-03 Willow Hills Reservoir Course 5000m 19:03 10th · 7th on team 113.8 +0.045 PR CR SR CSR RSR
2011-08-26 Woodland High School 3218m 11:37 15th · 6th on team 110.7 +0.024 ★CR SR CSR RSR

2010 XC 105.8

Folsom (CA) · Grade 11

Date Meet Event Result Place Rating Difficulty PR/SR Flags
2010-11-06 Calaveras County Fairgrounds 4828m 18:18 72nd · 4th on team 116.8 +0.065 CR R CSR RSR
2010-10-30 Willow Hills Reservoir Course 5000m 19:13 39th · 5th on team 112.0 +0.045 PR CR SR CSR RSR
2010-10-09 Granite Park 4828m 18:04 41st · 4th on team 112.0 +0.012 PR ★CR SR CSR RSR
2010-10-06 Granite Park 4828m 19:43 58th · 6th on team 102.1 +0.012 PR CR SR CSR
2010-09-25 Calaveras County Fairgrounds 4828m 20:43 90th · 5th on team 103.0 +0.065 PR CR SR CSR
2010-09-18 Willow Hills Reservoir Course 5000m 20:18 104th · 4th on team 106.2 +0.045 PR CR SR CSR RSR
2010-09-11 Rosemont HS 3540m 13:46.5 52nd · 2nd on team 103.6 +0.008 ★PR ★CR SR CSR RSR
2010-09-04 Willow Hills Reservoir Course 5000m 22:07 11th · 6th on team 98.3 +0.045 PR CR SR CSR RSR
2010-09-04 Willow Hills Reservoir Course 5000m 22:07 37th · 6th on team 98.3 +0.045

2009 XC 108.9

Folsom (CA) · Grade 10

Date Meet Event Result Place Rating Difficulty PR/SR Flags
2009-11-14 Willow Hills Reservoir Course 3400m 12:35 22nd · 4th on team 113.5 +0.043 ★PR ★CR SR CSR
2009-11-07 Calaveras County Fairgrounds 3218m 12:11 18th · 3rd on team 114.2 +0.084 ★CR R CSR RSR
2009-10-17 Willow Hills Reservoir Course 3400m 12:50.7 21st · 2nd on team 111.9 +0.043 PR CR SR CSR
2009-10-07 Granite Park 3218m 11:17 10th · 2nd on team 112.7 -0.013 ★PR ★CR R SR CSR RSR
2009-10-03 Muller Vineyards 3218m 11:52 15th · 1st on team 111.1 +0.024 PR ★CR R SR CSR RSR
2009-09-26 Calaveras County Fairgrounds 3218m 13:57 13th · 2nd on team 100.3 +0.084 SR CSR
2009-09-19 Willow Hills Reservoir Course 3300m 13:08 10th · 3rd on team 106.5 +0.056 ★PR ★CR SR CSR RSR
2009-09-11 Springview Drive 3000m 12:10 43rd · 3rd on team 105.8 +0.079 ★PR ★CR SR CSR RSR
2009-09-05 Willow Hills Reservoir Course 2500m 9:37 8th · 3rd on team 104.2 +0.036 ★PR ★CR SR CSR RSR

2008 XC 104.0

Folsom (CA) · Grade 9

Date Meet Event Result Place Rating Difficulty PR/SR Flags
2008-11-15 Willow Hills Reservoir Course 3218m 13:27 10th · 2nd on team 105.0 +0.088 ★CR CSR
2008-11-08 Calaveras County Fairgrounds 3218m 13:01 8th · 2nd on team 107.8 +0.084 CR R CSR RSR
2008-11-01 Willow Hills Reservoir Course 3218m 13:36 14th · 2nd on team 103.6 +0.088 CR CSR
2008-10-18 Willow Hills Reservoir Course 3400m 13:38.6 21st · 2nd on team 104.2 +0.043 PR CR SR CSR
2008-10-08 Granite Park 3057m 11:58 16th · 2nd on team 105.0 +0.025 ★PR ★CR SR CSR
2008-10-04 Muller Vineyards 3218m 12:18 6th · 2nd on team 106.7 +0.024 PR CR R SR CSR RSR
2008-09-20 Willow Hills Reservoir Course 3300m 14:30 37th · 3rd on team 95.4 +0.056 PR CR R SR CSR RSR

Track & Field

TF speed rating

2011 TF 112.8

Folsom (CA) · Grade 11

Date Meet Event Result Place Rating Difficulty PR/SR Flags
2011-05-12 Delta River League Varsity Championships 800m 2:10.33 8th · 2nd on team 116.7 -0.020
2011-05-12 Delta River League Varsity Championships 1600m 4:56 9th · 3rd on team 115.7 -0.020
2011-05-07 Folsom/Del Campo Distance Carnival 1600m 4:49.2 2nd · 2nd on team 118.5 -0.020 R RSR
2011-05-04 Oak Ridge/Folsom/Sheldon 3200m 11:20.2 7th · 2nd on team 110.1 -0.018 ★PR SR
2011-04-09 Lancer Invitational 1600m 5:13.68 19th · 3rd on team 107.8 -0.031
2011-04-02 Bella Vista Bronco Invitational 1600m 4:49.02 31st · 2nd on team 116.7 -0.036 ★PR SR RSR
2011-04-02 Bella Vista Bronco Invitational 800m 2:09.62 19th · 1st on team 115.6 -0.036 ★PR SR
2011-03-30 Sheldon, Jesuit, St. Francis, Ponderosa 800m 2:17.31 11th · 3rd on team 110.9 -0.020 PR SR
2011-03-30 Sheldon, Jesuit, St. Francis, Ponderosa 1600m 5:20.33 13th · 4th on team 107.1 -0.020
2011-03-22 Capital Christian 1500m 4:44.8 3rd · 3rd on team 112.3 -0.020 ★PR SR RSR
2011-03-22 Capital Christian 800m 2:18.7 3rd · 3rd on team 110.4 -0.020 PR SR
2011-03-12 King Gilbert Invitational 1600m 5:02.74 30th · 2nd on team 112.2 -0.027 SR RSR

2010 TF 107.7

Folsom (CA) · Grade 10

Date Meet Event Result Place Rating Difficulty PR/SR Flags
2010-05-13 Delta River Frosh Soph Track & Field Finals 1600m 5:01.74 5th · 1st on team 112.8 -0.021
2010-05-07 Bulldog/Cougar Distance Carnival 1600m 4:59.2 3rd · 1st on team 113.8 -0.020 PR SR RSR
2010-05-05 Folsom/Florin @ Monterey Trail 800m 2:18.9 3rd · 2nd on team 109.1 -0.021 PR SR
2010-04-17 Depth Charge 1600m 5:05.05 5th · 1st on team 111.8 -0.020 PR SR RSR
2010-04-14 Folsom/Pleasant Grove/Sheldon 400m 58.24 2nd · 2nd on team -0.031 ★PR SR
2010-04-14 Folsom/Pleasant Grove/Sheldon 800m 2:20.3 2nd · 2nd on team 107.0 -0.031
2010-04-10 Bella Vista Invitational 800m 2:21.2 19th · 2nd on team 106.1 -0.036
2010-04-10 Bella Vista Invitational 1600m 5:12.15 39th · 1st on team 107.9 -0.036 PR SR RSR
2010-03-13 King/Gilbert Invite 1600m 5:22.48 31st · 2nd on team 105.6 -0.027 PR SR
2010-03-13 King/Gilbert Invite 800m 2:22.96 17th · 2nd on team 105.9 -0.027
2010-03-06 CAL Invitational 1600m 5:24.12 40th · 2nd on team 103.5 -0.036 PR SR
2010-03-06 CAL Invitational 800m 2:19.86 15th · 1st on team 106.6 -0.036 PR SR RSR
2010-03-03 Elk Grove @ Folsom 800m 2:25.1 3rd · 1st on team 105.0 -0.020 PR SR RSR
2010-03-03 Elk Grove @ Folsom 1600m 5:25.3 6th · 3rd on team 105.5 -0.020 PR SR RSR

2009 TF

Folsom (CA) · Grade 9

Date Meet Event Result Place Rating Difficulty PR/SR Flags
2009-02-25 Race results → 400m 59.44 2nd · 1st on team PR SR